sensor_id;sensor_type;location;lat;lon;timestamp;P1;P2;P0
76420;PMS5003;65253;52.354;13.614;2023-03-02T00:00:00;34;30;
76420;PMS5003;65253;52.354;13.614;2023-03-02T00:04:00;35;26;
76420;PMS5003;65253;52.354;13.614;2023-03-02T00:08:00;42;30;
76420;PMS5003;65253;52.354;13.614;2023-03-02T00:12:00;29;28;
76420;PMS5003;65253;52.354;13.614;2023-03-02T00:16:00;30;20;
76420;PMS5003;65253;52.354;13.614;2023-03-02T00:20:00;26;20;
76420;PMS5003;65253;52.354;13.614;2023-03-02T00:24:00;36;30;
76420;PMS5003;65253;52.354;13.614;2023-03-02T00:28:00;28;23;
76420;PMS5003;65253;52.354;13.614;2023-03-02T00:32:00;33;27;
76420;PMS5003;65253;52.354;13.614;2023-03-02T00:36:00;25;25;
76420;PMS5003;65253;52.354;13.614;2023-03-02T00:40:00;37;31;
76420;PMS5003;65253;52.354;13.614;2023-03-02T00:44:00;32;22;
76420;PMS5003;65253;52.354;13.614;2023-03-02T00:48:00;32;26;
76420;PMS5003;65253;52.354;13.614;2023-03-02T00:52:00;30;26;
76420;PMS5003;65253;52.354;13.614;2023-03-02T00:56:00;35;26;
76420;PMS5003;65253;52.354;13.614;2023-03-02T01:00:00;34;24;
76420;PMS5003;65253;52.354;13.614;2023-03-02T01:04:00;34;27;
76420;PMS5003;65253;52.354;13.614;2023-03-02T01:08:00;30;26;
76420;PMS5003;65253;52.354;13.614;2023-03-02T01:12:00;32;25;
76420;PMS5003;65253;52.354;13.614;2023-03-02T01:16:00;27;25;
76420;PMS5003;65253;52.354;13.614;2023-03-02T01:20:00;30;24;
76420;PMS5003;65253;52.354;13.614;2023-03-02T01:24:00;26;21;
76420;PMS5003;65253;52.354;13.614;2023-03-02T01:28:00;31;24;
76420;PMS5003;65253;52.354;13.614;2023-03-02T01:32:00;32;22;
76420;PMS5003;65253;52.354;13.614;2023-03-02T01:36:00;32;23;
76420;PMS5003;65253;52.354;13.614;2023-03-02T01:44:00;29;23;
76420;PMS5003;65253;52.354;13.614;2023-03-02T01:48:00;31;22;
76420;PMS5003;65253;52.354;13.614;2023-03-02T01:52:00;35;29;
76420;PMS5003;65253;52.354;13.614;2023-03-02T01:56:00;28;24;
76420;PMS5003;65253;52.354;13.614;2023-03-02T02:00:01;22;21;
76420;PMS5003;65253;52.354;13.614;2023-03-02T02:04:00;27;18;
76420;PMS5003;65253;52.354;13.614;2023-03-02T02:08:00;31;21;
76420;PMS5003;65253;52.354;13.614;2023-03-02T02:12:00;20;19;
76420;PMS5003;65253;52.354;13.614;2023-03-02T02:16:00;24;19;
76420;PMS5003;65253;52.354;13.614;2023-03-02T02:20:04;28;20;
76420;PMS5003;65253;52.354;13.614;2023-03-02T02:24:02;22;21;
76420;PMS5003;65253;52.354;13.614;2023-03-02T02:28:00;23;20;
76420;PMS5003;65253;52.354;13.614;2023-03-02T02:32:01;23;21;
76420;PMS5003;65253;52.354;13.614;2023-03-02T02:36:01;27;23;
76420;PMS5003;65253;52.354;13.614;2023-03-02T02:40:00;23;19;
76420;PMS5003;65253;52.354;13.614;2023-03-02T02:44:00;30;22;
76420;PMS5003;65253;52.354;13.614;2023-03-02T02:48:00;22;19;
76420;PMS5003;65253;52.354;13.614;2023-03-02T02:52:00;37;24;
76420;PMS5003;65253;52.354;13.614;2023-03-02T02:56:00;25;20;
76420;PMS5003;65253;52.354;13.614;2023-03-02T03:00:00;27;21;
76420;PMS5003;65253;52.354;13.614;2023-03-02T03:04:01;24;19;
76420;PMS5003;65253;52.354;13.614;2023-03-02T03:08:07;27;23;
76420;PMS5003;65253;52.354;13.614;2023-03-02T03:12:00;28;23;
76420;PMS5003;65253;52.354;13.614;2023-03-02T03:16:00;30;21;
76420;PMS5003;65253;52.354;13.614;2023-03-02T03:20:00;24;23;
76420;PMS5003;65253;52.354;13.614;2023-03-02T03:24:00;26;23;
76420;PMS5003;65253;52.354;13.614;2023-03-02T03:28:00;38;26;
76420;PMS5003;65253;52.354;13.614;2023-03-02T03:32:01;30;23;
76420;PMS5003;65253;52.354;13.614;2023-03-02T03:36:00;23;21;
76420;PMS5003;65253;52.354;13.614;2023-03-02T03:40:00;34;23;
76420;PMS5003;65253;52.354;13.614;2023-03-02T03:44:00;29;23;
76420;PMS5003;65253;52.354;13.614;2023-03-02T03:48:00;31;22;
76420;PMS5003;65253;52.354;13.614;2023-03-02T03:52:00;30;23;
76420;PMS5003;65253;52.354;13.614;2023-03-02T03:56:00;22;20;
76420;PMS5003;65253;52.354;13.614;2023-03-02T04:00:00;28;26;
76420;PMS5003;65253;52.354;13.614;2023-03-02T04:04:00;32;26;
76420;PMS5003;65253;52.354;13.614;2023-03-02T04:08:00;26;23;
76420;PMS5003;65253;52.354;13.614;2023-03-02T04:12:00;29;19;
76420;PMS5003;65253;52.354;13.614;2023-03-02T04:16:00;32;25;
76420;PMS5003;65253;52.354;13.614;2023-03-02T04:20:00;32;22;
76420;PMS5003;65253;52.354;13.614;2023-03-02T04:24:00;27;21;
76420;PMS5003;65253;52.354;13.614;2023-03-02T04:28:00;23;20;
76420;PMS5003;65253;52.354;13.614;2023-03-02T04:32:00;25;19;
76420;PMS5003;65253;52.354;13.614;2023-03-02T04:36:00;24;21;
76420;PMS5003;65253;52.354;13.614;2023-03-02T04:40:00;24;20;
76420;PMS5003;65253;52.354;13.614;2023-03-02T04:44:00;28;19;
76420;PMS5003;65253;52.354;13.614;2023-03-02T04:48:00;23;17;
76420;PMS5003;65253;52.354;13.614;2023-03-02T04:52:00;31;25;
76420;PMS5003;65253;52.354;13.614;2023-03-02T04:56:00;31;23;
76420;PMS5003;65253;52.354;13.614;2023-03-02T05:00:00;32;24;
76420;PMS5003;65253;52.354;13.614;2023-03-02T05:04:03;29;25;
76420;PMS5003;65253;52.354;13.614;2023-03-02T05:08:00;24;20;
76420;PMS5003;65253;52.354;13.614;2023-03-02T05:12:00;31;24;
76420;PMS5003;65253;52.354;13.614;2023-03-02T05:16:00;33;23;
76420;PMS5003;65253;52.354;13.614;2023-03-02T05:20:00;31;26;
76420;PMS5003;65253;52.354;13.614;2023-03-02T05:24:00;31;23;
76420;PMS5003;65253;52.354;13.614;2023-03-02T05:28:00;27;23;
76420;PMS5003;65253;52.354;13.614;2023-03-02T05:32:00;35;24;
76420;PMS5003;65253;52.354;13.614;2023-03-02T05:36:00;33;28;
76420;PMS5003;65253;52.354;13.614;2023-03-02T05:40:00;26;21;
76420;PMS5003;65253;52.354;13.614;2023-03-02T05:44:00;28;22;
76420;PMS5003;65253;52.354;13.614;2023-03-02T05:48:00;29;25;
76420;PMS5003;65253;52.354;13.614;2023-03-02T05:52:00;26;22;
76420;PMS5003;65253;52.354;13.614;2023-03-02T05:56:00;34;24;
76420;PMS5003;65253;52.354;13.614;2023-03-02T06:00:00;29;24;
76420;PMS5003;65253;52.354;13.614;2023-03-02T06:04:00;31;25;
76420;PMS5003;65253;52.354;13.614;2023-03-02T06:08:00;31;23;
76420;PMS5003;65253;52.354;13.614;2023-03-02T06:12:00;37;27;
76420;PMS5003;65253;52.354;13.614;2023-03-02T06:16:00;28;23;
76420;PMS5003;65253;52.354;13.614;2023-03-02T06:20:00;35;25;
76420;PMS5003;65253;52.354;13.614;2023-03-02T06:24:00;42;28;
76420;PMS5003;65253;52.354;13.614;2023-03-02T06:28:00;30;24;
76420;PMS5003;65253;52.354;13.614;2023-03-02T06:32:00;25;24;
76420;PMS5003;65253;52.354;13.614;2023-03-02T06:36:00;27;24;
76420;PMS5003;65253;52.354;13.614;2023-03-02T06:40:00;35;26;
76420;PMS5003;65253;52.354;13.614;2023-03-02T06:44:00;33;27;
76420;PMS5003;65253;52.354;13.614;2023-03-02T06:48:00;28;22;
76420;PMS5003;65253;52.354;13.614;2023-03-02T06:52:00;34;27;
76420;PMS5003;65253;52.354;13.614;2023-03-02T06:56:00;30;23;
76420;PMS5003;65253;52.354;13.614;2023-03-02T07:00:00;33;27;
76420;PMS5003;65253;52.354;13.614;2023-03-02T07:04:00;31;24;
76420;PMS5003;65253;52.354;13.614;2023-03-02T07:08:00;37;29;
76420;PMS5003;65253;52.354;13.614;2023-03-02T07:12:00;43;33;
76420;PMS5003;65253;52.354;13.614;2023-03-02T07:16:04;38;30;
76420;PMS5003;65253;52.354;13.614;2023-03-02T07:20:00;35;25;
76420;PMS5003;65253;52.354;13.614;2023-03-02T07:24:00;27;22;
76420;PMS5003;65253;52.354;13.614;2023-03-02T07:28:00;32;25;
76420;PMS5003;65253;52.354;13.614;2023-03-02T07:32:00;23;18;
76420;PMS5003;65253;52.354;13.614;2023-03-02T07:36:00;27;25;
76420;PMS5003;65253;52.354;13.614;2023-03-02T07:40:01;34;21;
76420;PMS5003;65253;52.354;13.614;2023-03-02T07:44:00;29;26;
76420;PMS5003;65253;52.354;13.614;2023-03-02T07:48:00;33;22;
76420;PMS5003;65253;52.354;13.614;2023-03-02T07:52:00;30;26;
76420;PMS5003;65253;52.354;13.614;2023-03-02T07:56:04;25;22;
76420;PMS5003;65253;52.354;13.614;2023-03-02T08:00:00;36;24;
76420;PMS5003;65253;52.354;13.614;2023-03-02T08:04:00;27;22;
76420;PMS5003;65253;52.354;13.614;2023-03-02T08:08:00;34;22;
76420;PMS5003;65253;52.354;13.614;2023-03-02T08:12:00;35;25;
76420;PMS5003;65253;52.354;13.614;2023-03-02T08:16:00;40;26;
76420;PMS5003;65253;52.354;13.614;2023-03-02T08:20:00;30;22;
76420;PMS5003;65253;52.354;13.614;2023-03-02T08:24:00;30;23;
76420;PMS5003;65253;52.354;13.614;2023-03-02T08:28:00;37;25;
76420;PMS5003;65253;52.354;13.614;2023-03-02T08:32:00;34;24;
76420;PMS5003;65253;52.354;13.614;2023-03-02T08:36:01;40;26;
76420;PMS5003;65253;52.354;13.614;2023-03-02T08:40:00;28;26;
76420;PMS5003;65253;52.354;13.614;2023-03-02T08:44:00;42;28;
76420;PMS5003;65253;52.354;13.614;2023-03-02T08:48:00;42;27;
76420;PMS5003;65253;52.354;13.614;2023-03-02T08:52:00;27;25;
76420;PMS5003;65253;52.354;13.614;2023-03-02T08:56:00;39;28;
76420;PMS5003;65253;52.354;13.614;2023-03-02T09:00:00;35;29;
76420;PMS5003;65253;52.354;13.614;2023-03-02T09:04:00;47;33;
76420;PMS5003;65253;52.354;13.614;2023-03-02T09:08:00;34;27;
76420;PMS5003;65253;52.354;13.614;2023-03-02T09:12:00;47;26;
76420;PMS5003;65253;52.354;13.614;2023-03-02T09:16:00;44;28;
76420;PMS5003;65253;52.354;13.614;2023-03-02T09:20:00;48;31;
76420;PMS5003;65253;52.354;13.614;2023-03-02T09:24:00;39;28;
76420;PMS5003;65253;52.354;13.614;2023-03-02T09:28:00;46;32;
76420;PMS5003;65253;52.354;13.614;2023-03-02T09:32:00;38;31;
76420;PMS5003;65253;52.354;13.614;2023-03-02T09:36:03;39;28;
76420;PMS5003;65253;52.354;13.614;2023-03-02T09:40:00;49;31;
76420;PMS5003;65253;52.354;13.614;2023-03-02T09:44:01;35;25;
76420;PMS5003;65253;52.354;13.614;2023-03-02T09:48:04;37;25;
76420;PMS5003;65253;52.354;13.614;2023-03-02T09:52:04;42;29;
76420;PMS5003;65253;52.354;13.614;2023-03-02T09:56:00;37;25;
76420;PMS5003;65253;52.354;13.614;2023-03-02T10:00:10;43;23;
76420;PMS5003;65253;52.354;13.614;2023-03-02T10:04:03;29;21;
76420;PMS5003;65253;52.354;13.614;2023-03-02T10:08:00;34;26;
76420;PMS5003;65253;52.354;13.614;2023-03-02T10:12:03;44;29;
76420;PMS5003;65253;52.354;13.614;2023-03-02T10:16:05;42;28;
76420;PMS5003;65253;52.354;13.614;2023-03-02T10:20:02;39;30;
76420;PMS5003;65253;52.354;13.614;2023-03-02T10:24:01;41;29;
76420;PMS5003;65253;52.354;13.614;2023-03-02T10:28:00;39;27;
76420;PMS5003;65253;52.354;13.614;2023-03-02T10:32:03;41;25;
76420;PMS5003;65253;52.354;13.614;2023-03-02T10:36:00;47;29;
76420;PMS5003;65253;52.354;13.614;2023-03-02T10:40:00;36;29;
76420;PMS5003;65253;52.354;13.614;2023-03-02T10:44:01;39;26;
76420;PMS5003;65253;52.354;13.614;2023-03-02T10:48:00;32;24;
76420;PMS5003;65253;52.354;13.614;2023-03-02T10:52:00;36;26;
76420;PMS5003;65253;52.354;13.614;2023-03-02T10:56:00;45;26;
76420;PMS5003;65253;52.354;13.614;2023-03-02T11:00:01;66;39;
76420;PMS5003;65253;52.354;13.614;2023-03-02T11:04:00;50;30;
76420;PMS5003;65253;52.354;13.614;2023-03-02T11:08:00;46;36;
76420;PMS5003;65253;52.354;13.614;2023-03-02T11:12:00;54;36;
76420;PMS5003;65253;52.354;13.614;2023-03-02T11:16:01;52;35;
76420;PMS5003;65253;52.354;13.614;2023-03-02T11:20:00;52;36;
76420;PMS5003;65253;52.354;13.614;2023-03-02T11:24:03;63;42;
76420;PMS5003;65253;52.354;13.614;2023-03-02T11:28:01;49;34;
76420;PMS5003;65253;52.354;13.614;2023-03-02T11:32:03;61;34;
76420;PMS5003;65253;52.354;13.614;2023-03-02T11:36:02;52;29;
76420;PMS5003;65253;52.354;13.614;2023-03-02T11:40:06;44;29;
76420;PMS5003;65253;52.354;13.614;2023-03-02T11:44:00;53;35;
76420;PMS5003;65253;52.354;13.614;2023-03-02T11:48:04;71;43;
76420;PMS5003;65253;52.354;13.614;2023-03-02T11:52:00;56;36;
76420;PMS5003;65253;52.354;13.614;2023-03-02T11:56:00;58;34;
76420;PMS5003;65253;52.354;13.614;2023-03-02T12:00:00;52;32;
76420;PMS5003;65253;52.354;13.614;2023-03-02T12:04:07;57;35;
76420;PMS5003;65253;52.354;13.614;2023-03-02T12:08:01;51;29;
76420;PMS5003;65253;52.354;13.614;2023-03-02T12:12:13;57;38;
76420;PMS5003;65253;52.354;13.614;2023-03-02T12:16:00;51;39;
76420;PMS5003;65253;52.354;13.614;2023-03-02T12:24:00;43;34;
76420;PMS5003;65253;52.354;13.614;2023-03-02T12:28:00;62;35;
76420;PMS5003;65253;52.354;13.614;2023-03-02T12:32:08;48;32;
76420;PMS5003;65253;52.354;13.614;2023-03-02T12:36:02;61;38;
76420;PMS5003;65253;52.354;13.614;2023-03-02T12:40:13;58;39;
76420;PMS5003;65253;52.354;13.614;2023-03-02T12:44:03;54;33;
76420;PMS5003;65253;52.354;13.614;2023-03-02T12:48:02;48;36;
76420;PMS5003;65253;52.354;13.614;2023-03-02T12:52:01;47;30;
76420;PMS5003;65253;52.354;13.614;2023-03-02T12:56:00;61;38;
76420;PMS5003;65253;52.354;13.614;2023-03-02T13:00:00;59;41;
76420;PMS5003;65253;52.354;13.614;2023-03-02T13:04:00;53;39;
76420;PMS5003;65253;52.354;13.614;2023-03-02T13:08:01;50;36;
76420;PMS5003;65253;52.354;13.614;2023-03-02T13:12:00;51;33;
76420;PMS5003;65253;52.354;13.614;2023-03-02T13:16:01;48;30;
76420;PMS5003;65253;52.354;13.614;2023-03-02T13:20:00;65;39;
76420;PMS5003;65253;52.354;13.614;2023-03-02T13:24:00;59;33;
76420;PMS5003;65253;52.354;13.614;2023-03-02T13:28:00;53;33;
76420;PMS5003;65253;52.354;13.614;2023-03-02T13:36:00;51;31;
76420;PMS5003;65253;52.354;13.614;2023-03-02T13:40:01;41;30;
76420;PMS5003;65253;52.354;13.614;2023-03-02T13:44:10;48;29;
76420;PMS5003;65253;52.354;13.614;2023-03-02T13:48:11;36;29;
76420;PMS5003;65253;52.354;13.614;2023-03-02T13:52:00;41;27;
76420;PMS5003;65253;52.354;13.614;2023-03-02T13:56:00;46;32;
76420;PMS5003;65253;52.354;13.614;2023-03-02T14:00:00;42;35;
76420;PMS5003;65253;52.354;13.614;2023-03-02T14:04:00;50;31;
76420;PMS5003;65253;52.354;13.614;2023-03-02T14:08:00;56;33;
76420;PMS5003;65253;52.354;13.614;2023-03-02T14:12:00;43;31;
76420;PMS5003;65253;52.354;13.614;2023-03-02T14:16:00;47;28;
76420;PMS5003;65253;52.354;13.614;2023-03-02T14:20:00;32;24;
76420;PMS5003;65253;52.354;13.614;2023-03-02T14:24:00;48;34;
76420;PMS5003;65253;52.354;13.614;2023-03-02T14:28:00;41;30;
76420;PMS5003;65253;52.354;13.614;2023-03-02T14:32:01;47;33;
76420;PMS5003;65253;52.354;13.614;2023-03-02T14:36:00;41;28;
76420;PMS5003;65253;52.354;13.614;2023-03-02T14:40:00;51;40;
76420;PMS5003;65253;52.354;13.614;2023-03-02T14:44:00;41;32;
76420;PMS5003;65253;52.354;13.614;2023-03-02T14:48:00;48;36;
76420;PMS5003;65253;52.354;13.614;2023-03-02T14:52:01;47;28;
76420;PMS5003;65253;52.354;13.614;2023-03-02T14:56:00;51;29;
76420;PMS5003;65253;52.354;13.614;2023-03-02T15:00:00;36;28;
76420;PMS5003;65253;52.354;13.614;2023-03-02T15:04:00;59;30;
76420;PMS5003;65253;52.354;13.614;2023-03-02T15:08:00;50;33;
76420;PMS5003;65253;52.354;13.614;2023-03-02T15:12:00;45;26;
76420;PMS5003;65253;52.354;13.614;2023-03-02T15:16:00;48;29;
76420;PMS5003;65253;52.354;13.614;2023-03-02T15:20:00;38;31;
76420;PMS5003;65253;52.354;13.614;2023-03-02T15:24:00;38;27;
76420;PMS5003;65253;52.354;13.614;2023-03-02T15:28:00;46;28;
76420;PMS5003;65253;52.354;13.614;2023-03-02T15:32:00;38;24;
76420;PMS5003;65253;52.354;13.614;2023-03-02T15:36:00;47;32;
76420;PMS5003;65253;52.354;13.614;2023-03-02T15:40:00;43;24;
76420;PMS5003;65253;52.354;13.614;2023-03-02T15:44:00;45;26;
76420;PMS5003;65253;52.354;13.614;2023-03-02T15:48:00;47;29;
76420;PMS5003;65253;52.354;13.614;2023-03-02T15:52:00;37;24;
76420;PMS5003;65253;52.354;13.614;2023-03-02T15:56:02;47;31;
76420;PMS5003;65253;52.354;13.614;2023-03-02T16:00:00;44;28;
76420;PMS5003;65253;52.354;13.614;2023-03-02T16:04:00;51;30;
76420;PMS5003;65253;52.354;13.614;2023-03-02T16:08:00;39;28;
76420;PMS5003;65253;52.354;13.614;2023-03-02T16:12:00;44;25;
76420;PMS5003;65253;52.354;13.614;2023-03-02T16:16:00;46;27;
76420;PMS5003;65253;52.354;13.614;2023-03-02T16:20:00;58;42;
76420;PMS5003;65253;52.354;13.614;2023-03-02T16:24:00;38;32;
76420;PMS5003;65253;52.354;13.614;2023-03-02T16:28:00;46;28;
76420;PMS5003;65253;52.354;13.614;2023-03-02T16:32:00;45;34;
76420;PMS5003;65253;52.354;13.614;2023-03-02T16:36:00;48;31;
76420;PMS5003;65253;52.354;13.614;2023-03-02T16:40:00;41;26;
76420;PMS5003;65253;52.354;13.614;2023-03-02T16:44:00;40;24;
76420;PMS5003;65253;52.354;13.614;2023-03-02T16:48:00;46;33;
76420;PMS5003;65253;52.354;13.614;2023-03-02T16:52:00;34;25;
76420;PMS5003;65253;52.354;13.614;2023-03-02T16:56:00;45;31;
76420;PMS5003;65253;52.354;13.614;2023-03-02T17:00:00;36;23;
76420;PMS5003;65253;52.354;13.614;2023-03-02T17:04:00;42;27;
76420;PMS5003;65253;52.354;13.614;2023-03-02T17:08:00;40;28;
76420;PMS5003;65253;52.354;13.614;2023-03-02T17:12:00;36;24;
76420;PMS5003;65253;52.354;13.614;2023-03-02T17:16:00;38;25;
76420;PMS5003;65253;52.354;13.614;2023-03-02T17:20:00;54;33;
76420;PMS5003;65253;52.354;13.614;2023-03-02T17:24:00;41;24;
76420;PMS5003;65253;52.354;13.614;2023-03-02T17:28:00;41;30;
76420;PMS5003;65253;52.354;13.614;2023-03-02T17:32:00;35;26;
76420;PMS5003;65253;52.354;13.614;2023-03-02T17:36:01;41;28;
76420;PMS5003;65253;52.354;13.614;2023-03-02T17:40:00;39;27;
76420;PMS5003;65253;52.354;13.614;2023-03-02T17:44:00;51;27;
76420;PMS5003;65253;52.354;13.614;2023-03-02T17:48:00;42;27;
76420;PMS5003;65253;52.354;13.614;2023-03-02T17:52:00;41;26;
76420;PMS5003;65253;52.354;13.614;2023-03-02T17:56:00;45;25;
76420;PMS5003;65253;52.354;13.614;2023-03-02T18:00:00;51;31;
76420;PMS5003;65253;52.354;13.614;2023-03-02T18:04:00;34;25;
76420;PMS5003;65253;52.354;13.614;2023-03-02T18:08:00;49;30;
76420;PMS5003;65253;52.354;13.614;2023-03-02T18:12:00;48;33;
76420;PMS5003;65253;52.354;13.614;2023-03-02T18:16:00;45;27;
76420;PMS5003;65253;52.354;13.614;2023-03-02T18:20:00;33;21;
76420;PMS5003;65253;52.354;13.614;2023-03-02T18:24:00;46;32;
76420;PMS5003;65253;52.354;13.614;2023-03-02T18:28:00;39;29;
76420;PMS5003;65253;52.354;13.614;2023-03-02T18:32:00;30;20;
76420;PMS5003;65253;52.354;13.614;2023-03-02T18:36:00;36;24;
76420;PMS5003;65253;52.354;13.614;2023-03-02T18:40:00;38;23;
76420;PMS5003;65253;52.354;13.614;2023-03-02T18:44:00;30;20;
76420;PMS5003;65253;52.354;13.614;2023-03-02T18:48:00;31;21;
76420;PMS5003;65253;52.354;13.614;2023-03-02T18:52:00;25;15;
76420;PMS5003;65253;52.354;13.614;2023-03-02T18:56:00;30;16;
76420;PMS5003;65253;52.354;13.614;2023-03-02T19:00:00;25;13;
76420;PMS5003;65253;52.354;13.614;2023-03-02T19:04:00;21;15;
76420;PMS5003;65253;52.354;13.614;2023-03-02T19:08:00;18;11;
76420;PMS5003;65253;52.354;13.614;2023-03-02T19:12:00;22;11;
76420;PMS5003;65253;52.354;13.614;2023-03-02T19:16:00;25;16;
76420;PMS5003;65253;52.354;13.614;2023-03-02T19:20:00;22;13;
76420;PMS5003;65253;52.354;13.614;2023-03-02T19:24:00;19;11;
76420;PMS5003;65253;52.354;13.614;2023-03-02T19:28:00;23;14;
76420;PMS5003;65253;52.354;13.614;2023-03-02T19:32:00;27;14;
76420;PMS5003;65253;52.354;13.614;2023-03-02T19:36:00;30;15;
76420;PMS5003;65253;52.354;13.614;2023-03-02T19:40:00;31;13;
76420;PMS5003;65253;52.354;13.614;2023-03-02T19:44:00;22;13;
76420;PMS5003;65253;52.354;13.614;2023-03-02T19:48:00;26;16;
76420;PMS5003;65253;52.354;13.614;2023-03-02T19:52:00;30;16;
76420;PMS5003;65253;52.354;13.614;2023-03-02T19:56:00;23;13;
76420;PMS5003;65253;52.354;13.614;2023-03-02T20:00:00;22;15;
76420;PMS5003;65253;52.354;13.614;2023-03-02T20:04:00;23;12;
76420;PMS5003;65253;52.354;13.614;2023-03-02T20:08:00;23;13;
76420;PMS5003;65253;52.354;13.614;2023-03-02T20:12:00;26;15;
76420;PMS5003;65253;52.354;13.614;2023-03-02T20:16:00;28;16;
76420;PMS5003;65253;52.354;13.614;2023-03-02T20:20:00;32;16;
76420;PMS5003;65253;52.354;13.614;2023-03-02T20:24:00;25;16;
76420;PMS5003;65253;52.354;13.614;2023-03-02T20:28:00;27;13;
76420;PMS5003;65253;52.354;13.614;2023-03-02T20:32:00;29;17;
76420;PMS5003;65253;52.354;13.614;2023-03-02T20:36:00;28;17;
76420;PMS5003;65253;52.354;13.614;2023-03-02T20:40:00;33;22;
76420;PMS5003;65253;52.354;13.614;2023-03-02T20:44:00;30;19;
76420;PMS5003;65253;52.354;13.614;2023-03-02T20:48:00;37;22;
76420;PMS5003;65253;52.354;13.614;2023-03-02T20:52:00;22;16;
76420;PMS5003;65253;52.354;13.614;2023-03-02T20:56:00;42;23;
76420;PMS5003;65253;52.354;13.614;2023-03-02T21:00:00;37;16;
76420;PMS5003;65253;52.354;13.614;2023-03-02T21:04:00;30;20;
76420;PMS5003;65253;52.354;13.614;2023-03-02T21:08:00;41;21;
76420;PMS5003;65253;52.354;13.614;2023-03-02T21:12:00;36;22;
76420;PMS5003;65253;52.354;13.614;2023-03-02T21:16:00;27;19;
76420;PMS5003;65253;52.354;13.614;2023-03-02T21:20:00;22;12;
76420;PMS5003;65253;52.354;13.614;2023-03-02T21:24:00;20;17;
76420;PMS5003;65253;52.354;13.614;2023-03-02T21:28:00;22;12;
76420;PMS5003;65253;52.354;13.614;2023-03-02T21:32:00;28;16;
76420;PMS5003;65253;52.354;13.614;2023-03-02T21:36:00;15;11;
76420;PMS5003;65253;52.354;13.614;2023-03-02T21:40:00;20;10;
76420;PMS5003;65253;52.354;13.614;2023-03-02T21:44:00;23;13;
76420;PMS5003;65253;52.354;13.614;2023-03-02T21:48:00;28;17;
76420;PMS5003;65253;52.354;13.614;2023-03-02T21:52:00;22;12;
76420;PMS5003;65253;52.354;13.614;2023-03-02T21:56:00;26;16;
76420;PMS5003;65253;52.354;13.614;2023-03-02T22:00:00;22;16;
76420;PMS5003;65253;52.354;13.614;2023-03-02T22:04:00;29;15;
76420;PMS5003;65253;52.354;13.614;2023-03-02T22:08:00;24;17;
76420;PMS5003;65253;52.354;13.614;2023-03-02T22:12:00;22;13;
76420;PMS5003;65253;52.354;13.614;2023-03-02T22:16:10;25;15;
76420;PMS5003;65253;52.354;13.614;2023-03-02T22:20:00;20;12;
76420;PMS5003;65253;52.354;13.614;2023-03-02T22:24:04;27;16;
76420;PMS5003;65253;52.354;13.614;2023-03-02T22:28:00;24;16;
76420;PMS5003;65253;52.354;13.614;2023-03-02T22:32:05;24;15;
76420;PMS5003;65253;52.354;13.614;2023-03-02T22:36:01;17;12;
76420;PMS5003;65253;52.354;13.614;2023-03-02T22:40:00;17;12;
76420;PMS5003;65253;52.354;13.614;2023-03-02T22:44:00;13;9;
76420;PMS5003;65253;52.354;13.614;2023-03-02T22:48:00;12;11;
76420;PMS5003;65253;52.354;13.614;2023-03-02T22:52:00;20;10;
76420;PMS5003;65253;52.354;13.614;2023-03-02T22:56:00;18;12;
76420;PMS5003;65253;52.354;13.614;2023-03-02T23:00:22;17;10;
76420;PMS5003;65253;52.354;13.614;2023-03-02T23:04:01;10;6;
76420;PMS5003;65253;52.354;13.614;2023-03-02T23:08:13;8;8;
76420;PMS5003;65253;52.354;13.614;2023-03-02T23:12:01;10;7;
76420;PMS5003;65253;52.354;13.614;2023-03-02T23:16:00;15;11;
76420;PMS5003;65253;52.354;13.614;2023-03-02T23:20:01;12;8;
76420;PMS5003;65253;52.354;13.614;2023-03-02T23:24:00;7;7;
76420;PMS5003;65253;52.354;13.614;2023-03-02T23:28:00;14;8;
76420;PMS5003;65253;52.354;13.614;2023-03-02T23:32:00;11;9;
76420;PMS5003;65253;52.354;13.614;2023-03-02T23:36:00;11;7;
76420;PMS5003;65253;52.354;13.614;2023-03-02T23:40:00;11;8;
76420;PMS5003;65253;52.354;13.614;2023-03-02T23:44:00;17;8;
76420;PMS5003;65253;52.354;13.614;2023-03-02T23:48:00;12;7;
76420;PMS5003;65253;52.354;13.614;2023-03-02T23:52:00;14;7;
76420;PMS5003;65253;52.354;13.614;2023-03-02T23:56:00;12;7;
